sensor_id;sensor_type;location;lat;lon;timestamp;pressure;altitude;pressure_sealevel;temperature;humidity
3668;BME280;24099;47.102;15.440;2022-10-03T00:01:42;97272.19;;;10.09;100.00
3668;BME280;24099;47.102;15.440;2022-10-03T00:07:17;97275.47;;;9.88;100.00
3668;BME280;24099;47.102;15.440;2022-10-03T00:09:58;97266.06;;;9.93;100.00
3668;BME280;24099;47.102;15.440;2022-10-03T00:13:02;97266.00;;;9.79;100.00
3668;BME280;24099;47.102;15.440;2022-10-03T00:15:38;97265.88;;;9.72;100.00
3668;BME280;24099;47.102;15.440;2022-10-03T00:18:19;97272.28;;;9.70;100.00
3668;BME280;24099;47.102;15.440;2022-10-03T00:21:04;97267.16;;;9.76;100.00
3668;BME280;24099;47.102;15.440;2022-10-03T00:23:42;97275.16;;;9.83;100.00
3668;BME280;24099;47.102;15.440;2022-10-03T00:26:19;97285.97;;;9.88;100.00
3668;BME280;24099;47.102;15.440;2022-10-03T00:29:25;97285.16;;;9.87;100.00
3668;BME280;24099;47.102;15.440;2022-10-03T00:32:06;97300.44;;;9.84;100.00
3668;BME280;24099;47.102;15.440;2022-10-03T00:35:01;97304.25;;;9.81;100.00
3668;BME280;24099;47.102;15.440;2022-10-03T00:37:35;97316.72;;;9.56;100.00
3668;BME280;24099;47.102;15.440;2022-10-03T00:40:38;97314.78;;;9.42;100.00
3668;BME280;24099;47.102;15.440;2022-10-03T00:46:48;97314.63;;;9.44;100.00
3668;BME280;24099;47.102;15.440;2022-10-03T00:52:46;97310.59;;;9.64;100.00
3668;BME280;24099;47.102;15.440;2022-10-03T00:55:32;97316.34;;;9.59;100.00
3668;BME280;24099;47.102;15.440;2022-10-03T00:58:15;97319.88;;;9.44;100.00
3668;BME280;24099;47.102;15.440;2022-10-03T01:00:56;97314.94;;;9.49;100.00
3668;BME280;24099;47.102;15.440;2022-10-03T01:03:40;97305.72;;;9.53;100.00
3668;BME280;24099;47.102;15.440;2022-10-03T01:06:23;97298.34;;;9.56;100.00
3668;BME280;24099;47.102;15.440;2022-10-03T01:12:09;97303.69;;;9.32;100.00
3668;BME280;24099;47.102;15.440;2022-10-03T01:14:52;97306.31;;;9.32;100.00
3668;BME280;24099;47.102;15.440;2022-10-03T01:17:32;97302.22;;;9.29;100.00
3668;BME280;24099;47.102;15.440;2022-10-03T01:20:07;97308.34;;;9.14;100.00
3668;BME280;24099;47.102;15.440;2022-10-03T01:23:01;97299.28;;;9.24;100.00
3668;BME280;24099;47.102;15.440;2022-10-03T01:25:38;97305.63;;;8.99;100.00
3668;BME280;24099;47.102;15.440;2022-10-03T01:28:36;97300.69;;;8.96;100.00
3668;BME280;24099;47.102;15.440;2022-10-03T01:31:29;97299.41;;;8.92;100.00
3668;BME280;24099;47.102;15.440;2022-10-03T01:34:04;97295.47;;;8.80;100.00
3668;BME280;24099;47.102;15.440;2022-10-03T01:36:41;97290.97;;;9.05;100.00
3668;BME280;24099;47.102;15.440;2022-10-03T01:39:21;97290.97;;;9.05;100.00
3668;BME280;24099;47.102;15.440;2022-10-03T01:41:56;97291.53;;;8.84;100.00
3668;BME280;24099;47.102;15.440;2022-10-03T01:44:35;97295.56;;;9.03;100.00
3668;BME280;24099;47.102;15.440;2022-10-03T01:47:16;97294.34;;;8.74;100.00
3668;BME280;24099;47.102;15.440;2022-10-03T01:49:50;97290.22;;;8.88;100.00
3668;BME280;24099;47.102;15.440;2022-10-03T01:52:29;97297.63;;;8.68;100.00
3668;BME280;24099;47.102;15.440;2022-10-03T01:55:07;97298.63;;;8.67;100.00
3668;BME280;24099;47.102;15.440;2022-10-03T01:57:43;97280.22;;;8.83;100.00
3668;BME280;24099;47.102;15.440;2022-10-03T02:00:18;97284.72;;;8.50;100.00
3668;BME280;24099;47.102;15.440;2022-10-03T02:02:51;97286.16;;;8.69;100.00
3668;BME280;24099;47.102;15.440;2022-10-03T02:05:27;97284.16;;;8.79;100.00
3668;BME280;24099;47.102;15.440;2022-10-03T02:08:06;97274.06;;;8.52;100.00
3668;BME280;24099;47.102;15.440;2022-10-03T02:10:43;97275.56;;;8.38;100.00
3668;BME280;24099;47.102;15.440;2022-10-03T02:13:15;97276.84;;;8.50;100.00
3668;BME280;24099;47.102;15.440;2022-10-03T02:15:55;97279.47;;;8.42;100.00
3668;BME280;24099;47.102;15.440;2022-10-03T02:18:30;97289.97;;;8.58;100.00
3668;BME280;24099;47.102;15.440;2022-10-03T02:21:09;97279.94;;;8.70;100.00
3668;BME280;24099;47.102;15.440;2022-10-03T02:23:41;97286.53;;;8.58;100.00
3668;BME280;24099;47.102;15.440;2022-10-03T02:26:44;97282.25;;;8.57;100.00
3668;BME280;24099;47.102;15.440;2022-10-03T02:29:30;97295.63;;;8.86;100.00
3668;BME280;24099;47.102;15.440;2022-10-03T02:32:15;97289.41;;;8.79;100.00
3668;BME280;24099;47.102;15.440;2022-10-03T02:35:12;97295.63;;;8.94;100.00
3668;BME280;24099;47.102;15.440;2022-10-03T02:38:05;97307.56;;;9.05;100.00
3668;BME280;24099;47.102;15.440;2022-10-03T02:41:08;97306.56;;;9.06;100.00
3668;BME280;24099;47.102;15.440;2022-10-03T02:47:14;97314.09;;;9.09;100.00
3668;BME280;24099;47.102;15.440;2022-10-03T02:53:26;97316.50;;;9.27;100.00
3668;BME280;24099;47.102;15.440;2022-10-03T02:59:53;97327.19;;;9.25;100.00
3668;BME280;24099;47.102;15.440;2022-10-03T03:08:37;97327.28;;;9.40;100.00
3668;BME280;24099;47.102;15.440;2022-10-03T03:20:43;97340.72;;;9.53;100.00
3668;BME280;24099;47.102;15.440;2022-10-03T03:23:41;97356.13;;;9.56;100.00
3668;BME280;24099;47.102;15.440;2022-10-03T03:29:15;97358.19;;;9.69;100.00
3668;BME280;24099;47.102;15.440;2022-10-03T03:31:54;97359.69;;;9.63;100.00
3668;BME280;24099;47.102;15.440;2022-10-03T03:34:34;97365.91;;;9.71;100.00
3668;BME280;24099;47.102;15.440;2022-10-03T03:37:12;97362.16;;;9.65;100.00
3668;BME280;24099;47.102;15.440;2022-10-03T03:40:01;97351.94;;;9.78;100.00
3668;BME280;24099;47.102;15.440;2022-10-03T03:43:04;97360.97;;;9.76;100.00
3668;BME280;24099;47.102;15.440;2022-10-03T03:45:48;97351.19;;;9.92;100.00
3668;BME280;24099;47.102;15.440;2022-10-03T03:48:46;97341.53;;;9.85;100.00
3668;BME280;24099;47.102;15.440;2022-10-03T03:51:26;97355.25;;;9.72;100.00
3668;BME280;24099;47.102;15.440;2022-10-03T03:54:22;97351.88;;;9.86;100.00
3668;BME280;24099;47.102;15.440;2022-10-03T03:57:06;97356.81;;;9.81;100.00
3668;BME280;24099;47.102;15.440;2022-10-03T03:59:45;97363.84;;;9.89;100.00
3668;BME280;24099;47.102;15.440;2022-10-03T04:02:26;97361.41;;;9.87;100.00
3668;BME280;24099;47.102;15.440;2022-10-03T04:05:09;97348.09;;;9.89;100.00
3668;BME280;24099;47.102;15.440;2022-10-03T04:07:56;97363.44;;;9.77;100.00
3668;BME280;24099;47.102;15.440;2022-10-03T04:10:40;97343.06;;;10.02;100.00
3668;BME280;24099;47.102;15.440;2022-10-03T04:13:29;97348.41;;;9.86;100.00
3668;BME280;24099;47.102;15.440;2022-10-03T04:16:20;97348.63;;;10.07;100.00
3668;BME280;24099;47.102;15.440;2022-10-03T04:19:12;97342.19;;;9.87;100.00
3668;BME280;24099;47.102;15.440;2022-10-03T04:21:57;97346.41;;;9.96;100.00
3668;BME280;24099;47.102;15.440;2022-10-03T04:24:47;97345.31;;;9.82;100.00
3668;BME280;24099;47.102;15.440;2022-10-03T04:27:39;97351.22;;;9.84;100.00
3668;BME280;24099;47.102;15.440;2022-10-03T04:30:13;97347.75;;;9.92;100.00
3668;BME280;24099;47.102;15.440;2022-10-03T04:33:09;97343.69;;;9.81;100.00
3668;BME280;24099;47.102;15.440;2022-10-03T04:38:45;97356.28;;;9.94;100.00
3668;BME280;24099;47.102;15.440;2022-10-03T04:41:24;97370.66;;;10.06;100.00
3668;BME280;24099;47.102;15.440;2022-10-03T04:44:01;97360.44;;;10.11;100.00
3668;BME280;24099;47.102;15.440;2022-10-03T04:46:37;97356.44;;;9.92;100.00
3668;BME280;24099;47.102;15.440;2022-10-03T04:49:13;97357.75;;;9.96;100.00
3668;BME280;24099;47.102;15.440;2022-10-03T04:51:45;97367.09;;;9.99;100.00
3668;BME280;24099;47.102;15.440;2022-10-03T04:54:27;97359.44;;;10.12;100.00
3668;BME280;24099;47.102;15.440;2022-10-03T04:57:04;97360.38;;;9.96;100.00
3668;BME280;24099;47.102;15.440;2022-10-03T04:59:42;97367.88;;;9.99;100.00
3668;BME280;24099;47.102;15.440;2022-10-03T05:02:33;97365.38;;;10.06;100.00
3668;BME280;24099;47.102;15.440;2022-10-03T05:08:02;97392.91;;;9.95;100.00
3668;BME280;24099;47.102;15.440;2022-10-03T05:10:54;97387.38;;;10.13;100.00
3668;BME280;24099;47.102;15.440;2022-10-03T05:13:38;97390.97;;;10.20;100.00
3668;BME280;24099;47.102;15.440;2022-10-03T05:16:22;97405.34;;;10.01;100.00
3668;BME280;24099;47.102;15.440;2022-10-03T05:19:01;97401.28;;;9.99;100.00
3668;BME280;24099;47.102;15.440;2022-10-03T05:21:38;97406.00;;;10.03;100.00
3668;BME280;24099;47.102;15.440;2022-10-03T05:24:21;97399.28;;;10.01;100.00
3668;BME280;24099;47.102;15.440;2022-10-03T05:26:55;97403.53;;;10.02;100.00
3668;BME280;24099;47.102;15.440;2022-10-03T05:29:35;97407.69;;;9.96;100.00
3668;BME280;24099;47.102;15.440;2022-10-03T05:32:16;97403.84;;;10.07;100.00
3668;BME280;24099;47.102;15.440;2022-10-03T05:35:02;97404.19;;;10.04;100.00
3668;BME280;24099;47.102;15.440;2022-10-03T05:40:49;97425.22;;;10.04;100.00
3668;BME280;24099;47.102;15.440;2022-10-03T05:43:45;97415.34;;;10.06;100.00
3668;BME280;24099;47.102;15.440;2022-10-03T05:46:37;97413.34;;;10.16;100.00
3668;BME280;24099;47.102;15.440;2022-10-03T05:49:26;97423.56;;;10.11;100.00
3668;BME280;24099;47.102;15.440;2022-10-03T05:52:17;97428.00;;;10.11;100.00
3668;BME280;24099;47.102;15.440;2022-10-03T05:55:28;97423.22;;;10.14;100.00
3668;BME280;24099;47.102;15.440;2022-10-03T06:07:50;97430.72;;;10.25;100.00
3668;BME280;24099;47.102;15.440;2022-10-03T06:10:42;97433.19;;;10.27;100.00
3668;BME280;24099;47.102;15.440;2022-10-03T06:13:15;97426.28;;;10.26;100.00
3668;BME280;24099;47.102;15.440;2022-10-03T06:16:02;97426.34;;;10.41;100.00
3668;BME280;24099;47.102;15.440;2022-10-03T06:19:04;97433.91;;;10.44;100.00
3668;BME280;24099;47.102;15.440;2022-10-03T06:28:14;97445.88;;;10.54;100.00
3668;BME280;24099;47.102;15.440;2022-10-03T06:31:32;97453.34;;;10.65;100.00
3668;BME280;24099;47.102;15.440;2022-10-03T06:34:34;97454.34;;;10.64;100.00
3668;BME280;24099;47.102;15.440;2022-10-03T06:37:41;97455.75;;;10.75;100.00
3668;BME280;24099;47.102;15.440;2022-10-03T06:44:09;97460.94;;;10.83;100.00
3668;BME280;24099;47.102;15.440;2022-10-03T06:47:16;97441.63;;;10.91;100.00
3668;BME280;24099;47.102;15.440;2022-10-03T06:50:25;97461.94;;;10.82;100.00
3668;BME280;24099;47.102;15.440;2022-10-03T06:53:50;97460.47;;;10.80;100.00
3668;BME280;24099;47.102;15.440;2022-10-03T06:57:18;97470.47;;;10.84;100.00
3668;BME280;24099;47.102;15.440;2022-10-03T07:00:07;97453.03;;;11.06;100.00
3668;BME280;24099;47.102;15.440;2022-10-03T07:03:15;97466.81;;;10.93;100.00
3668;BME280;24099;47.102;15.440;2022-10-03T07:06:11;97468.91;;;10.98;100.00
3668;BME280;24099;47.102;15.440;2022-10-03T07:16:06;97472.06;;;10.93;100.00
3668;BME280;24099;47.102;15.440;2022-10-03T07:19:18;97466.06;;;10.99;100.00
3668;BME280;24099;47.102;15.440;2022-10-03T07:22:46;97476.72;;;11.06;100.00
3668;BME280;24099;47.102;15.440;2022-10-03T07:25:42;97477.84;;;11.12;100.00
3668;BME280;24099;47.102;15.440;2022-10-03T07:31:52;97483.16;;;11.26;100.00
3668;BME280;24099;47.102;15.440;2022-10-03T07:34:51;97476.00;;;11.35;100.00
3668;BME280;24099;47.102;15.440;2022-10-03T07:38:05;97483.25;;;11.33;100.00
3668;BME280;24099;47.102;15.440;2022-10-03T07:41:24;97486.19;;;11.38;100.00
3668;BME280;24099;47.102;15.440;2022-10-03T07:47:55;97507.81;;;11.11;100.00
3668;BME280;24099;47.102;15.440;2022-10-03T07:54:18;97495.16;;;11.44;100.00
3668;BME280;24099;47.102;15.440;2022-10-03T07:57:32;97501.22;;;11.15;100.00
3668;BME280;24099;47.102;15.440;2022-10-03T08:00:19;97507.16;;;11.31;100.00
3668;BME280;24099;47.102;15.440;2022-10-03T08:03:55;97490.00;;;11.50;100.00
3668;BME280;24099;47.102;15.440;2022-10-03T08:06:37;97498.66;;;11.21;100.00
3668;BME280;24099;47.102;15.440;2022-10-03T08:12:55;97504.38;;;11.48;100.00
3668;BME280;24099;47.102;15.440;2022-10-03T08:15:47;97498.16;;;11.40;100.00
3668;BME280;24099;47.102;15.440;2022-10-03T08:18:35;97506.53;;;11.44;100.00
3668;BME280;24099;47.102;15.440;2022-10-03T08:21:17;97499.78;;;11.42;100.00
3668;BME280;24099;47.102;15.440;2022-10-03T08:27:30;97507.63;;;11.50;100.00
3668;BME280;24099;47.102;15.440;2022-10-03T08:30:30;97508.16;;;11.45;100.00
3668;BME280;24099;47.102;15.440;2022-10-03T08:33:35;97509.22;;;11.59;100.00
3668;BME280;24099;47.102;15.440;2022-10-03T08:36:39;97509.56;;;11.56;100.00
3668;BME280;24099;47.102;15.440;2022-10-03T08:39:29;97509.56;;;11.56;100.00
3668;BME280;24099;47.102;15.440;2022-10-03T08:42:18;97510.00;;;11.59;100.00
3668;BME280;24099;47.102;15.440;2022-10-03T08:48:25;97509.41;;;11.57;100.00
3668;BME280;24099;47.102;15.440;2022-10-03T08:51:29;97512.09;;;11.64;100.00
3668;BME280;24099;47.102;15.440;2022-10-03T08:57:21;97508.91;;;11.91;100.00
3668;BME280;24099;47.102;15.440;2022-10-03T09:00:04;97513.44;;;12.12;100.00
3668;BME280;24099;47.102;15.440;2022-10-03T09:06:20;97519.03;;;12.53;100.00
3668;BME280;24099;47.102;15.440;2022-10-03T09:09:32;97513.88;;;12.66;100.00
3668;BME280;24099;47.102;15.440;2022-10-03T09:12:45;97518.47;;;12.79;100.00
3668;BME280;24099;47.102;15.440;2022-10-03T09:19:10;97513.63;;;12.97;100.00
3668;BME280;24099;47.102;15.440;2022-10-03T09:22:35;97512.28;;;13.08;100.00
3668;BME280;24099;47.102;15.440;2022-10-03T09:25:32;97516.00;;;13.14;100.00
3668;BME280;24099;47.102;15.440;2022-10-03T09:28:37;97513.66;;;13.19;100.00
3668;BME280;24099;47.102;15.440;2022-10-03T09:31:28;97513.56;;;13.33;100.00
3668;BME280;24099;47.102;15.440;2022-10-03T09:37:57;97511.47;;;13.50;100.00
3668;BME280;24099;47.102;15.440;2022-10-03T09:44:45;97533.81;;;13.48;100.00
3668;BME280;24099;47.102;15.440;2022-10-03T09:47:50;97529.78;;;13.52;100.00
3668;BME280;24099;47.102;15.440;2022-10-03T09:54:46;97524.41;;;13.38;100.00
3668;BME280;24099;47.102;15.440;2022-10-03T09:57:53;97517.63;;;13.57;100.00
3668;BME280;24099;47.102;15.440;2022-10-03T10:00:45;97512.06;;;13.80;100.00
3668;BME280;24099;47.102;15.440;2022-10-03T10:07:00;97509.25;;;14.23;100.00
3668;BME280;24099;47.102;15.440;2022-10-03T10:10:04;97506.97;;;14.13;100.00
3668;BME280;24099;47.102;15.440;2022-10-03T10:13:10;97507.59;;;14.15;100.00
3668;BME280;24099;47.102;15.440;2022-10-03T10:16:28;97507.41;;;14.64;100.00
3668;BME280;24099;47.102;15.440;2022-10-03T10:19:41;97489.78;;;15.11;100.00
3668;BME280;24099;47.102;15.440;2022-10-03T10:25:34;97484.69;;;15.42;100.00
3668;BME280;24099;47.102;15.440;2022-10-03T10:35:32;97483.25;;;15.27;100.00
3668;BME280;24099;47.102;15.440;2022-10-03T10:41:41;97479.53;;;16.07;100.00
3668;BME280;24099;47.102;15.440;2022-10-03T10:50:37;97476.94;;;16.83;100.00
3668;BME280;24099;47.102;15.440;2022-10-03T10:53:58;97474.31;;;17.14;100.00
3668;BME280;24099;47.102;15.440;2022-10-03T10:57:03;97471.44;;;17.66;100.00
3668;BME280;24099;47.102;15.440;2022-10-03T11:12:04;97474.59;;;17.00;91.82
3668;BME280;24099;47.102;15.440;2022-10-03T11:18:25;97473.06;;;16.85;87.45
3668;BME280;24099;47.102;15.440;2022-10-03T11:21:30;97469.75;;;16.90;89.20
3668;BME280;24099;47.102;15.440;2022-10-03T11:24:38;97473.75;;;17.06;90.18
3668;BME280;24099;47.102;15.440;2022-10-03T11:31:02;97463.72;;;16.76;94.44
3668;BME280;24099;47.102;15.440;2022-10-03T11:37:08;97465.28;;;17.15;85.58
3668;BME280;24099;47.102;15.440;2022-10-03T11:39:43;97471.38;;;17.22;78.15
3668;BME280;24099;47.102;15.440;2022-10-03T11:42:28;97477.03;;;17.01;77.75
3668;BME280;24099;47.102;15.440;2022-10-03T11:45:04;97460.84;;;16.78;79.85
3668;BME280;24099;47.102;15.440;2022-10-03T11:47:44;97468.44;;;16.74;82.86
3668;BME280;24099;47.102;15.440;2022-10-03T11:50:26;97460.84;;;16.78;84.01
3668;BME280;24099;47.102;15.440;2022-10-03T11:53:09;97480.16;;;16.53;84.84
3668;BME280;24099;47.102;15.440;2022-10-03T11:55:42;97466.50;;;16.88;82.80
3668;BME280;24099;47.102;15.440;2022-10-03T11:58:30;97469.13;;;16.95;79.83
3668;BME280;24099;47.102;15.440;2022-10-03T12:01:12;97472.34;;;16.65;89.79
3668;BME280;24099;47.102;15.440;2022-10-03T12:03:51;97468.13;;;16.51;83.77
3668;BME280;24099;47.102;15.440;2022-10-03T12:06:32;97464.44;;;16.90;86.45
3668;BME280;24099;47.102;15.440;2022-10-03T12:09:29;97461.88;;;16.32;95.25
3668;BME280;24099;47.102;15.440;2022-10-03T12:12:12;97465.59;;;16.18;94.42
3668;BME280;24099;47.102;15.440;2022-10-03T12:14:46;97468.69;;;16.15;88.58
3668;BME280;24099;47.102;15.440;2022-10-03T12:17:16;97472.50;;;16.32;84.01
3668;BME280;24099;47.102;15.440;2022-10-03T12:19:56;97470.59;;;16.39;91.72
3668;BME280;24099;47.102;15.440;2022-10-03T12:22:39;97461.91;;;16.19;90.71
3668;BME280;24099;47.102;15.440;2022-10-03T12:25:20;97461.16;;;15.99;90.15
3668;BME280;24099;47.102;15.440;2022-10-03T12:27:56;97467.13;;;16.39;80.07
3668;BME280;24099;47.102;15.440;2022-10-03T12:30:29;97466.47;;;16.50;80.64
3668;BME280;24099;47.102;15.440;2022-10-03T12:33:16;97460.09;;;16.13;89.53
3668;BME280;24099;47.102;15.440;2022-10-03T12:35:52;97467.31;;;15.79;88.84
3668;BME280;24099;47.102;15.440;2022-10-03T12:38:36;97463.94;;;16.24;81.25
3668;BME280;24099;47.102;15.440;2022-10-03T12:41:18;97465.16;;;16.28;80.12
3668;BME280;24099;47.102;15.440;2022-10-03T12:43:58;97467.38;;;16.37;81.43
3668;BME280;24099;47.102;15.440;2022-10-03T12:46:38;97457.63;;;16.63;84.03
3668;BME280;24099;47.102;15.440;2022-10-03T12:49:13;97456.34;;;16.78;87.40
3668;BME280;24099;47.102;15.440;2022-10-03T12:51:51;97453.75;;;16.59;89.76
3668;BME280;24099;47.102;15.440;2022-10-03T12:54:39;97457.63;;;16.63;100.00
3668;BME280;24099;47.102;15.440;2022-10-03T12:57:43;97456.16;;;16.73;82.24
3668;BME280;24099;47.102;15.440;2022-10-03T13:00:20;97458.88;;;16.98;76.19
3668;BME280;24099;47.102;15.440;2022-10-03T13:06:04;97468.78;;;17.16;85.80
3668;BME280;24099;47.102;15.440;2022-10-03T13:08:52;97467.56;;;17.12;74.99
3668;BME280;24099;47.102;15.440;2022-10-03T13:11:30;97465.72;;;17.12;79.83
3668;BME280;24099;47.102;15.440;2022-10-03T13:14:14;97469.75;;;16.90;83.62
3668;BME280;24099;47.102;15.440;2022-10-03T13:16:56;97466.06;;;16.91;76.75
3668;BME280;24099;47.102;15.440;2022-10-03T13:19:32;97476.53;;;16.86;80.22
3668;BME280;24099;47.102;15.440;2022-10-03T13:22:18;97471.09;;;17.06;91.02
3668;BME280;24099;47.102;15.440;2022-10-03T13:24:53;97475.31;;;16.82;82.63
3668;BME280;24099;47.102;15.440;2022-10-03T13:27:32;97470.69;;;16.71;79.56
3668;BME280;24099;47.102;15.440;2022-10-03T13:30:04;97471.47;;;16.78;82.81
3668;BME280;24099;47.102;15.440;2022-10-03T13:32:36;97463.63;;;16.90;80.23
3668;BME280;24099;47.102;15.440;2022-10-03T13:35:19;97463.59;;;16.96;75.04
3668;BME280;24099;47.102;15.440;2022-10-03T13:38:12;97464.03;;;16.93;77.85
3668;BME280;24099;47.102;15.440;2022-10-03T13:40:46;97457.78;;;17.06;74.25
3668;BME280;24099;47.102;15.440;2022-10-03T13:43:19;97457.25;;;17.22;80.43
3668;BME280;24099;47.102;15.440;2022-10-03T13:45:52;97455.69;;;17.14;84.45
3668;BME280;24099;47.102;15.440;2022-10-03T13:48:25;97456.00;;;17.25;87.95
3668;BME280;24099;47.102;15.440;2022-10-03T13:50:58;97450.03;;;17.29;75.84
3668;BME280;24099;47.102;15.440;2022-10-03T13:53:49;97460.19;;;17.14;80.84
3668;BME280;24099;47.102;15.440;2022-10-03T13:56:32;97469.34;;;16.93;83.53
3668;BME280;24099;47.102;15.440;2022-10-03T13:59:13;97467.72;;;16.41;94.75
3668;BME280;24099;47.102;15.440;2022-10-03T14:01:53;97472.91;;;16.23;84.30
3668;BME280;24099;47.102;15.440;2022-10-03T14:04:49;97463.91;;;16.30;84.34
3668;BME280;24099;47.102;15.440;2022-10-03T14:07:27;97470.91;;;16.63;76.00
3668;BME280;24099;47.102;15.440;2022-10-03T14:10:11;97478.06;;;16.69;79.16
3668;BME280;24099;47.102;15.440;2022-10-03T14:12:52;97468.03;;;16.71;100.00
3668;BME280;24099;47.102;15.440;2022-10-03T14:15:29;97469.47;;;16.60;100.00
3668;BME280;24099;47.102;15.440;2022-10-03T14:18:05;97460.94;;;16.96;82.31
3668;BME280;24099;47.102;15.440;2022-10-03T14:21:07;97467.00;;;17.03;74.23
3668;BME280;24099;47.102;15.440;2022-10-03T14:23:36;97472.53;;;17.02;77.53
3668;BME280;24099;47.102;15.440;2022-10-03T14:26:16;97461.16;;;16.95;80.96
3668;BME280;24099;47.102;15.440;2022-10-03T14:28:50;97465.16;;;17.04;77.35
3668;BME280;24099;47.102;15.440;2022-10-03T14:31:25;97468.13;;;16.89;85.51
3668;BME280;24099;47.102;15.440;2022-10-03T14:34:02;97462.72;;;17.02;79.37
3668;BME280;24099;47.102;15.440;2022-10-03T14:36:38;97470.06;;;17.07;85.45
3668;BME280;24099;47.102;15.440;2022-10-03T14:39:27;97466.50;;;16.88;85.12
3668;BME280;24099;47.102;15.440;2022-10-03T14:42:25;97471.81;;;16.88;86.16
3668;BME280;24099;47.102;15.440;2022-10-03T14:44:57;97472.09;;;17.05;74.48
3668;BME280;24099;47.102;15.440;2022-10-03T14:47:32;97468.03;;;17.02;81.80
3668;BME280;24099;47.102;15.440;2022-10-03T14:50:01;97469.06;;;17.01;88.44
3668;BME280;24099;47.102;15.440;2022-10-03T14:52:33;97473.34;;;17.02;81.04
3668;BME280;24099;47.102;15.440;2022-10-03T14:55:13;97469.97;;;16.88;85.38
3668;BME280;24099;47.102;15.440;2022-10-03T14:57:47;97462.31;;;16.99;85.31
3668;BME280;24099;47.102;15.440;2022-10-03T15:00:32;97458.75;;;16.80;81.91
3668;BME280;24099;47.102;15.440;2022-10-03T15:03:18;97463.53;;;16.71;86.44
3668;BME280;24099;47.102;15.440;2022-10-03T15:06:21;97477.22;;;16.75;78.19
3668;BME280;24099;47.102;15.440;2022-10-03T15:08:59;97472.13;;;16.60;81.13
3668;BME280;24099;47.102;15.440;2022-10-03T15:11:31;97478.53;;;16.52;75.05
3668;BME280;24099;47.102;15.440;2022-10-03T15:14:02;97475.69;;;16.47;77.77
3668;BME280;24099;47.102;15.440;2022-10-03T15:16:34;97472.91;;;16.29;79.40
3668;BME280;24099;47.102;15.440;2022-10-03T15:19:07;97473.81;;;16.54;73.80
3668;BME280;24099;47.102;15.440;2022-10-03T15:21:42;97477.81;;;16.32;79.19
3668;BME280;24099;47.102;15.440;2022-10-03T15:24:18;97482.28;;;16.38;85.91
3668;BME280;24099;47.102;15.440;2022-10-03T15:26:55;97482.91;;;16.27;83.61
3668;BME280;24099;47.102;15.440;2022-10-03T15:29:24;97485.22;;;16.17;97.31
3668;BME280;24099;47.102;15.440;2022-10-03T15:31:53;97485.03;;;16.05;100.00
3668;BME280;24099;47.102;15.440;2022-10-03T15:34:27;97485.31;;;15.77;100.00
3668;BME280;24099;47.102;15.440;2022-10-03T15:36:59;97490.41;;;15.39;100.00
3668;BME280;24099;47.102;15.440;2022-10-03T15:39:34;97499.19;;;15.27;100.00
3668;BME280;24099;47.102;15.440;2022-10-03T15:42:18;97495.50;;;15.21;100.00
3668;BME280;24099;47.102;15.440;2022-10-03T15:44:51;97502.22;;;15.10;100.00
3668;BME280;24099;47.102;15.440;2022-10-03T15:47:22;97497.72;;;15.04;100.00
3668;BME280;24099;47.102;15.440;2022-10-03T15:49:54;97510.53;;;14.88;100.00
3668;BME280;24099;47.102;15.440;2022-10-03T15:52:32;97500.72;;;14.68;100.00
3668;BME280;24099;47.102;15.440;2022-10-03T15:55:06;97506.72;;;14.42;100.00
3668;BME280;24099;47.102;15.440;2022-10-03T15:57:39;97503.16;;;14.70;100.00
3668;BME280;24099;47.102;15.440;2022-10-03T16:00:18;97498.13;;;14.34;100.00
3668;BME280;24099;47.102;15.440;2022-10-03T16:02:50;97500.06;;;14.12;100.00
3668;BME280;24099;47.102;15.440;2022-10-03T16:05:22;97507.84;;;13.86;100.00
3668;BME280;24099;47.102;15.440;2022-10-03T16:07:58;97509.97;;;13.69;100.00
3668;BME280;24099;47.102;15.440;2022-10-03T16:10:34;97518.78;;;13.76;100.00
3668;BME280;24099;47.102;15.440;2022-10-03T16:13:13;97521.91;;;13.58;100.00
3668;BME280;24099;47.102;15.440;2022-10-03T16:16:05;97517.13;;;13.47;100.00
3668;BME280;24099;47.102;15.440;2022-10-03T16:18:52;97520.66;;;13.11;100.00
3668;BME280;24099;47.102;15.440;2022-10-03T16:21:31;97521.03;;;12.87;100.00
3668;BME280;24099;47.102;15.440;2022-10-03T16:24:14;97526.56;;;12.92;100.00
3668;BME280;24099;47.102;15.440;2022-10-03T16:26:49;97531.22;;;12.90;100.00
3668;BME280;24099;47.102;15.440;2022-10-03T16:29:23;97535.31;;;12.57;100.00
3668;BME280;24099;47.102;15.440;2022-10-03T16:31:56;97539.44;;;12.45;100.00
3668;BME280;24099;47.102;15.440;2022-10-03T16:34:28;97538.16;;;12.26;100.00
3668;BME280;24099;47.102;15.440;2022-10-03T16:36:58;97537.34;;;12.25;100.00
3668;BME280;24099;47.102;15.440;2022-10-03T16:39:29;97544.38;;;12.03;100.00
3668;BME280;24099;47.102;15.440;2022-10-03T16:41:59;97550.94;;;11.70;100.00
3668;BME280;24099;47.102;15.440;2022-10-03T16:44:33;97559.09;;;11.60;100.00
3668;BME280;24099;47.102;15.440;2022-10-03T16:47:04;97562.88;;;11.43;100.00
3668;BME280;24099;47.102;15.440;2022-10-03T16:49:40;97565.41;;;11.36;100.00
3668;BME280;24099;47.102;15.440;2022-10-03T16:52:37;97556.28;;;11.62;100.00
3668;BME280;24099;47.102;15.440;2022-10-03T16:55:11;97565.13;;;11.31;100.00
3668;BME280;24099;47.102;15.440;2022-10-03T16:57:46;97573.56;;;11.27;100.00
3668;BME280;24099;47.102;15.440;2022-10-03T17:00:22;97585.03;;;11.11;100.00
3668;BME280;24099;47.102;15.440;2022-10-03T17:02:52;97588.16;;;10.84;100.00
3668;BME280;24099;47.102;15.440;2022-10-03T17:05:21;97593.31;;;11.00;100.00
3668;BME280;24099;47.102;15.440;2022-10-03T17:07:52;97592.66;;;10.75;100.00
3668;BME280;24099;47.102;15.440;2022-10-03T17:10:27;97599.41;;;10.69;100.00
3668;BME280;24099;47.102;15.440;2022-10-03T17:12:59;97604.53;;;10.63;100.00
3668;BME280;24099;47.102;15.440;2022-10-03T17:15:32;97599.59;;;10.68;100.00
3668;BME280;24099;47.102;15.440;2022-10-03T17:18:10;97596.28;;;10.74;100.00